Time;durP1;ratioP1;P1;durP2;ratioP2;P2;SDS_P1;SDS_P2;PMS_P1;PMS_P2;Temp;Humidity;BMP_temperature;BMP_pressure;BME280_temperature;BME280_humidity;BME280_pressure;Samples;Min_cycle;Max_cycle;Signal;HPM_P1;HPM_P2
2022/08/31 00:05:10;;;;;;;22.60;15.48;;;;;;;19.62;100.00;94746.88;5071185;28;20211;-80
2022/08/31 00:07:37;;;;;;;21.60;14.95;;;;;;;19.51;100.00;94748.75;5070726;28;20201;-80
2022/08/31 00:10:12;;;;;;;28.73;16.98;;;;;;;19.63;100.00;94745.78;5070485;28;20555;-80
2022/08/31 00:12:40;;;;;;;24.20;17.38;;;;;;;19.75;100.00;94751.53;5070504;28;20347;-81
2022/08/31 00:15:11;;;;;;;27.98;18.65;;;;;;;19.78;100.00;94749.16;5070373;28;20308;-82
2022/08/31 00:17:39;;;;;;;23.15;16.80;;;;;;;19.79;100.00;94745.47;5070835;28;20182;-82
2022/08/31 00:20:08;;;;;;;24.95;16.80;;;;;;;19.82;100.00;94749.41;5070820;28;20193;-81
2022/08/31 00:22:35;;;;;;;22.95;16.48;;;;;;;19.76;100.00;94746.00;5070278;28;20189;-82
2022/08/31 00:25:01;;;;;;;25.13;15.98;;;;;;;19.70;100.00;94738.38;5070694;28;20220;-82
2022/08/31 00:27:28;;;;;;;20.20;15.82;;;;;;;19.63;100.00;94746.59;5070563;28;20194;-83
2022/08/31 00:29:55;;;;;;;26.20;16.00;;;;;;;19.58;100.00;94745.81;5069898;28;20213;-85
2022/08/31 00:32:23;;;;;;;23.40;15.40;;;;;;;19.60;100.00;94743.69;5069211;28;20213;-84
2022/08/31 00:34:51;;;;;;;29.73;15.20;;;;;;;19.69;100.00;94747.34;5070486;28;20200;-82
2022/08/31 00:37:18;;;;;;;27.17;15.65;;;;;;;19.67;100.00;94745.00;5071285;28;20199;-81
2022/08/31 00:39:45;;;;;;;20.20;14.57;;;;;;;19.60;100.00;94752.41;5071322;28;20201;-83
2022/08/31 00:42:12;;;;;;;23.30;14.13;;;;;;;19.58;100.00;94751.91;5071201;28;20208;-83
2022/08/31 00:44:39;;;;;;;28.95;15.70;;;;;;;19.58;100.00;94756.38;5071146;28;20660;-83
2022/08/31 00:47:06;;;;;;;22.90;15.27;;;;;;;19.56;100.00;94754.03;5071324;28;20205;-83
2022/08/31 00:49:37;;;;;;;21.75;15.48;;;;;;;19.61;100.00;94750.56;5071665;28;20543;-83
2022/08/31 00:52:08;;;;;;;24.15;16.23;;;;;;;19.68;100.00;94751.81;5071555;28;20201;-81
2022/08/31 00:54:39;;;;;;;20.30;15.30;;;;;;;19.78;100.00;94758.91;5071075;28;20198;-80
2022/08/31 00:57:08;;;;;;;17.55;14.13;;;;;;;19.75;100.00;94752.34;5073734;28;20182;-81
2022/08/31 00:59:35;;;;;;;21.27;15.18;;;;;;;19.76;100.00;94761.84;5074596;28;20197;-82
2022/08/31 01:02:03;;;;;;;22.40;15.15;;;;;;;19.71;100.00;94750.53;5074742;28;20189;-80
2022/08/31 01:04:30;;;;;;;22.15;15.20;;;;;;;19.74;100.00;94753.38;5074851;28;20193;-81
2022/08/31 01:06:59;;;;;;;22.35;14.88;;;;;;;19.68;100.00;94756.34;5074888;28;20275;-81
2022/08/31 01:09:29;;;;;;;19.33;14.73;;;;;;;19.66;100.00;94753.16;5074798;28;20193;-83
2022/08/31 01:11:57;;;;;;;21.88;14.95;;;;;;;19.61;100.00;94751.34;5075041;28;20221;-83
2022/08/31 01:14:24;;;;;;;21.65;14.85;;;;;;;19.59;100.00;94760.59;5074532;28;20225;-84
2022/08/31 01:16:53;;;;;;;21.17;15.63;;;;;;;19.58;100.00;94751.09;5074928;28;20182;-85
2022/08/31 01:19:30;;;;;;;21.58;15.00;;;;;;;19.59;100.00;94753.47;5074985;28;20202;-81
2022/08/31 01:22:06;;;;;;;18.65;14.32;;;;;;;19.57;100.00;94755.59;5074664;28;20224;-82
2022/08/31 01:24:36;;;;;;;20.10;15.15;;;;;;;19.54;100.00;94750.84;5074325;28;20212;-81
2022/08/31 01:27:06;;;;;;;19.50;15.05;;;;;;;19.53;100.00;94759.84;5074224;28;20643;-81
2022/08/31 01:29:34;;;;;;;24.10;15.05;;;;;;;19.54;100.00;94750.06;5074524;28;20189;-82
2022/08/31 01:32:01;;;;;;;25.10;15.80;;;;;;;19.49;100.00;94756.16;5074668;28;20191;-82
2022/08/31 01:34:28;;;;;;;19.95;14.65;;;;;;;19.57;100.00;94757.41;5074290;28;20287;-81
2022/08/31 01:36:55;;;;;;;22.63;14.68;;;;;;;19.59;100.00;94752.69;5074040;28;20201;-82
2022/08/31 01:39:22;;;;;;;21.13;14.40;;;;;;;19.59;100.00;94758.75;5074037;28;20205;-81
2022/08/31 01:41:51;;;;;;;19.50;14.73;;;;;;;19.55;100.00;94759.56;5074071;28;20461;-81
2022/08/31 01:44:19;;;;;;;20.38;15.32;;;;;;;19.54;100.00;94753.47;5073724;28;20198;-81
2022/08/31 01:46:46;;;;;;;20.80;14.75;;;;;;;19.50;100.00;94751.66;5074385;28;20207;-82
2022/08/31 01:49:15;;;;;;;19.80;15.10;;;;;;;19.57;100.00;94752.94;5073446;28;20201;-82
2022/08/31 01:51:42;;;;;;;29.27;15.95;;;;;;;19.54;100.00;94744.78;5072750;28;20637;-82
2022/08/31 01:54:10;;;;;;;21.33;14.88;;;;;;;19.57;100.00;94749.50;5073262;28;20626;-81
2022/08/31 01:56:40;;;;;;;22.58;14.52;;;;;;;19.58;100.00;94746.63;5073839;28;20617;-81
2022/08/31 01:59:10;;;;;;;20.45;14.88;;;;;;;19.52;100.00;94739.00;5073233;28;20189;-81
2022/08/31 02:01:41;;;;;;;22.38;14.80;;;;;;;19.60;100.00;94747.13;5073712;28;20182;-80
2022/08/31 02:04:09;;;;;;;22.25;14.32;;;;;;;19.56;100.00;94754.03;5073916;28;20177;-81
2022/08/31 02:06:36;;;;;;;21.80;14.70;;;;;;;19.54;100.00;94753.47;5073189;28;20227;-81
2022/08/31 02:09:05;;;;;;;24.73;15.93;;;;;;;19.51;100.00;94746.13;5072834;28;20228;-82
2022/08/31 02:11:33;;;;;;;21.58;14.65;;;;;;;19.50;100.00;94749.03;5073959;28;20640;-82
2022/08/31 02:13:59;;;;;;;19.63;13.88;;;;;;;19.46;100.00;94750.63;5073476;28;20221;-83
2022/08/31 02:16:28;;;;;;;18.92;14.40;;;;;;;19.45;100.00;94746.44;5073631;28;20193;-82
2022/08/31 02:18:54;;;;;;;19.63;14.48;;;;;;;19.47;100.00;94750.38;5073467;28;20204;-82
2022/08/31 02:21:22;;;;;;;23.42;14.30;;;;;;;19.39;100.00;94744.88;5073163;28;20684;-82
2022/08/31 02:23:49;;;;;;;18.08;14.05;;;;;;;19.32;100.00;94741.69;5072003;28;20190;-82
2022/08/31 02:26:16;;;;;;;19.58;13.95;;;;;;;19.27;100.00;94753.06;5072869;28;20209;-83
2022/08/31 02:28:43;;;;;;;24.38;14.43;;;;;;;19.34;100.00;94745.63;5073105;28;20193;-83
2022/08/31 02:31:09;;;;;;;18.98;14.45;;;;;;;19.30;100.00;94741.97;5073102;28;20212;-83
2022/08/31 02:33:38;;;;;;;20.00;14.48;;;;;;;19.32;100.00;94742.47;5073233;28;20711;-83
2022/08/31 02:36:05;;;;;;;19.80;14.63;;;;;;;19.35;100.00;94749.06;5073395;28;20197;-83
2022/08/31 02:38:33;;;;;;;26.17;15.32;;;;;;;19.28;100.00;94744.06;5073133;28;20197;-83
2022/08/31 02:41:00;;;;;;;21.92;15.30;;;;;;;19.15;100.00;94748.09;5073252;28;20194;-83
2022/08/31 02:43:27;;;;;;;21.13;15.23;;;;;;;19.08;100.00;94742.28;5072842;28;20185;-83
2022/08/31 02:45:54;;;;;;;20.73;14.40;;;;;;;19.06;100.00;94743.63;5072452;28;20626;-83
2022/08/31 02:48:21;;;;;;;25.42;14.18;;;;;;;19.01;100.00;94741.00;5072911;28;20557;-83
2022/08/31 02:50:52;;;;;;;21.10;14.35;;;;;;;19.04;100.00;94733.38;5072883;28;20200;-82
2022/08/31 02:53:22;;;;;;;25.17;14.07;;;;;;;19.06;100.00;94739.16;5072923;28;20225;-84
2022/08/31 02:55:50;;;;;;;21.30;15.07;;;;;;;19.06;100.00;94728.59;5072926;28;20232;-83
2022/08/31 02:58:19;;;;;;;21.20;14.05;;;;;;;19.05;100.00;94734.94;5072991;28;20242;-84
2022/08/31 03:00:47;;;;;;;22.92;14.70;;;;;;;19.00;100.00;94732.31;5072332;28;20699;-83
2022/08/31 03:03:15;;;;;;;20.77;13.27;;;;;;;19.00;100.00;94737.59;5072741;28;20561;-84
2022/08/31 03:05:42;;;;;;;23.23;14.45;;;;;;;18.96;100.00;94738.41;5072783;28;20204;-84
2022/08/31 03:08:10;;;;;;;19.67;14.02;;;;;;;18.97;100.00;94740.75;5071418;28;20197;-84
2022/08/31 03:10:37;;;;;;;21.88;14.48;;;;;;;18.90;100.00;94742.91;5071925;28;20201;-84
2022/08/31 03:13:04;;;;;;;23.02;14.40;;;;;;;18.78;100.00;94725.78;5071811;28;20225;-84
2022/08/31 03:15:31;;;;;;;24.02;14.40;;;;;;;18.89;100.00;94740.50;5070997;28;20229;-83
2022/08/31 03:17:58;;;;;;;19.60;14.30;;;;;;;18.87;100.00;94746.06;5072639;28;20189;-84
2022/08/31 03:20:26;;;;;;;21.30;13.77;;;;;;;19.03;100.00;94744.94;5072309;28;20200;-84
2022/08/31 03:22:53;;;;;;;24.60;14.38;;;;;;;18.98;100.00;94747.59;5072684;28;20272;-84
2022/08/31 03:25:22;;;;;;;21.98;14.27;;;;;;;19.02;100.00;94742.56;5072359;28;20212;-83
2022/08/31 03:27:49;;;;;;;25.45;14.82;;;;;;;18.98;100.00;94738.91;5072328;28;20197;-84
2022/08/31 03:30:20;;;;;;;23.35;14.38;;;;;;;18.95;100.00;94729.69;5072087;28;20611;-83
2022/08/31 03:32:49;;;;;;;23.63;15.30;;;;;;;18.96;100.00;94733.91;5071887;28;20603;-83
2022/08/31 03:35:16;;;;;;;24.45;14.27;;;;;;;18.90;100.00;94735.00;5072135;28;20259;-78
2022/08/31 03:37:44;;;;;;;20.70;15.10;;;;;;;18.88;100.00;94741.56;5071178;28;20276;-78
2022/08/31 03:40:11;;;;;;;24.05;15.13;;;;;;;18.79;100.00;94737.91;5071408;28;20193;-78
2022/08/31 03:42:40;;;;;;;22.77;15.13;;;;;;;18.78;100.00;94742.38;5070923;28;20193;-79
2022/08/31 03:45:07;;;;;;;22.10;15.50;;;;;;;18.82;100.00;94738.16;5071007;28;20251;-78
2022/08/31 03:47:35;;;;;;;27.00;15.13;;;;;;;18.70;100.00;94729.72;5070944;28;20232;-78
2022/08/31 03:50:04;;;;;;;21.13;15.27;;;;;;;18.70;100.00;94743.69;5070177;28;20353;-78
2022/08/31 03:52:31;;;;;;;23.58;15.02;;;;;;;18.68;100.00;94740.53;5071012;28;20193;-78
2022/08/31 03:54:58;;;;;;;26.00;16.20;;;;;;;18.68;100.00;94748.44;5070883;28;20201;-78
2022/08/31 03:57:25;;;;;;;23.80;15.60;;;;;;;18.61;100.00;94740.03;5070798;28;20204;-77
2022/08/31 03:59:54;;;;;;;24.80;14.63;;;;;;;18.56;100.00;94742.66;5070835;28;20617;-76
2022/08/31 04:02:22;;;;;;;25.92;15.45;;;;;;;18.58;100.00;94743.22;5070743;28;20221;-77
2022/08/31 04:04:50;;;;;;;23.52;14.93;;;;;;;18.58;100.00;94745.84;5069574;28;20203;-77
2022/08/31 04:07:18;;;;;;;24.25;15.15;;;;;;;18.48;100.00;94737.94;5064385;28;20209;-77
2022/08/31 04:09:45;;;;;;;28.48;15.60;;;;;;;18.47;100.00;94746.84;5063571;28;20229;-77
2022/08/31 04:12:11;;;;;;;25.15;15.38;;;;;;;18.50;100.00;94745.56;5068902;28;20209;-78
2022/08/31 04:14:38;;;;;;;26.70;14.85;;;;;;;18.45;100.00;94733.16;5069693;28;20229;-78
2022/08/31 04:17:09;;;;;;;21.52;15.63;;;;;;;18.49;100.00;94739.53;5069013;28;20198;-78
2022/08/31 04:19:36;;;;;;;20.83;15.43;;;;;;;18.46;100.00;94732.13;5069195;28;20197;-77
2022/08/31 04:22:03;;;;;;;22.88;15.20;;;;;;;18.59;100.00;94738.72;5070021;28;20304;-78
2022/08/31 04:24:30;;;;;;;31.65;15.00;;;;;;;18.43;100.00;94745.81;5070258;28;20202;-78
2022/08/31 04:26:57;;;;;;;27.48;16.13;;;;;;;18.35;100.00;94740.28;5069551;28;20651;-78
2022/08/31 04:29:24;;;;;;;23.88;16.17;;;;;;;18.24;100.00;94746.59;5069422;28;20193;-78
2022/08/31 04:31:51;;;;;;;22.47;15.20;;;;;;;18.25;100.00;94742.91;5071283;28;20194;-79
2022/08/31 04:34:19;;;;;;;22.20;15.57;;;;;;;18.25;100.00;94737.66;5074076;28;20254;-79
2022/08/31 04:36:46;;;;;;;21.53;16.37;;;;;;;18.52;100.00;94746.91;5073733;28;20197;-79
2022/08/31 04:39:13;;;;;;;26.48;15.90;;;;;;;18.62;100.00;94738.97;5073916;28;20220;-78
2022/08/31 04:41:41;;;;;;;23.48;15.38;;;;;;;18.66;100.00;94747.94;5073553;28;20198;-78
2022/08/31 04:44:10;;;;;;;22.30;16.20;;;;;;;18.72;100.00;94742.66;5073220;28;20193;-78
2022/08/31 04:46:38;;;;;;;32.27;16.17;;;;;;;18.69;100.00;94749.25;5072822;28;20224;-78
2022/08/31 04:49:06;;;;;;;22.10;15.67;;;;;;;18.72;100.00;94748.72;5073438;28;20201;-78
2022/08/31 04:51:35;;;;;;;30.23;15.13;;;;;;;18.75;100.00;94748.19;5072729;28;20613;-78
2022/08/31 04:54:02;;;;;;;21.33;14.82;;;;;;;18.81;100.00;94741.06;5072848;28;20707;-77
2022/08/31 04:56:32;;;;;;;24.40;16.25;;;;;;;18.90;100.00;94748.16;5073083;28;20205;-77
2022/08/31 04:59:01;;;;;;;24.73;16.20;;;;;;;18.89;100.00;94746.56;5072699;28;20676;-77
2022/08/31 05:01:30;;;;;;;25.65;15.80;;;;;;;18.88;100.00;94744.19;5073152;28;20201;-77
2022/08/31 05:03:58;;;;;;;25.98;15.27;;;;;;;18.93;100.00;94744.97;5073791;28;20190;-84
2022/08/31 05:06:26;;;;;;;22.58;15.82;;;;;;;18.93;100.00;94746.84;5073144;28;20212;-79
2022/08/31 05:08:56;;;;;;;24.38;16.27;;;;;;;18.96;100.00;94746.31;5073227;28;20932;-79
2022/08/31 05:11:25;;;;;;;25.92;15.57;;;;;;;18.97;100.00;94740.75;5074030;28;20220;-79
2022/08/31 05:13:52;;;;;;;24.27;14.95;;;;;;;18.99;100.00;94740.50;5072869;28;20229;-79
2022/08/31 05:16:20;;;;;;;24.38;14.70;;;;;;;19.02;100.00;94737.31;5072875;28;20185;-79
2022/08/31 05:18:49;;;;;;;26.88;14.65;;;;;;;19.08;100.00;94738.88;5073156;28;20201;-78
2022/08/31 05:21:19;;;;;;;21.77;15.50;;;;;;;19.14;100.00;94740.44;5071681;28;20287;-79
2022/08/31 05:23:47;;;;;;;19.27;14.35;;;;;;;19.27;100.00;94734.59;5071850;28;20419;-80
2022/08/31 05:26:19;;;;;;;24.02;14.93;;;;;;;19.34;100.00;94740.34;5069329;28;20197;-80
2022/08/31 05:28:46;;;;;;;22.15;14.90;;;;;;;19.41;100.00;94740.09;5072232;28;20197;-81
2022/08/31 05:31:13;;;;;;;21.65;15.27;;;;;;;19.40;100.00;94736.69;5069172;28;20664;-80
2022/08/31 05:33:41;;;;;;;23.90;14.90;;;;;;;19.42;100.00;94736.41;5071201;28;20213;-73
2022/08/31 05:36:20;;;;;;;25.08;14.98;;;;;;;19.44;100.00;94736.94;5071079;28;20247;-73
2022/08/31 05:38:47;;;;;;;23.40;15.38;;;;;;;19.47;100.00;94729.28;5071169;28;20251;-73
2022/08/31 05:41:14;;;;;;;27.55;15.30;;;;;;;19.50;100.00;94733.22;5071270;28;20288;-73
2022/08/31 05:43:42;;;;;;;28.00;15.57;;;;;;;19.47;100.00;94724.00;5071117;28;20186;-73
2022/08/31 05:46:13;;;;;;;28.65;15.60;;;;;;;19.56;100.00;94717.09;5072087;28;20194;-72
2022/08/31 05:48:40;;;;;;;22.88;15.13;;;;;;;19.65;100.00;94725.22;5072020;28;20221;-76
2022/08/31 05:51:08;;;;;;;23.52;16.33;;;;;;;19.71;100.00;94717.00;5071709;28;20193;-76
2022/08/31 05:53:36;;;;;;;20.98;15.13;;;;;;;19.73;100.00;94709.63;5071420;28;20221;-74
2022/08/31 05:56:08;;;;;;;20.83;16.05;;;;;;;19.80;100.00;94719.84;5071606;28;20205;-73
2022/08/31 05:58:36;;;;;;;27.08;16.27;;;;;;;19.83;100.00;94717.47;5072254;28;20562;-73
2022/08/31 06:01:12;;;;;;;25.05;17.23;;;;;;;19.89;100.00;94718.22;5071818;28;20193;-73
2022/08/31 06:03:38;;;;;;;30.77;16.55;;;;;;;19.98;100.00;94713.94;5071590;28;20189;-72
2022/08/31 06:06:07;;;;;;;27.15;16.63;;;;;;;20.05;100.00;94718.91;5072068;28;20275;-73
2022/08/31 06:08:34;;;;;;;33.83;16.23;;;;;;;20.12;100.00;94719.38;5071485;28;20193;-73
2022/08/31 06:11:01;;;;;;;23.08;15.90;;;;;;;20.15;100.00;94722.25;5071762;28;20691;-73
2022/08/31 06:13:28;;;;;;;31.35;16.13;;;;;;;20.16;100.00;94715.91;5071439;28;20667;-73
2022/08/31 06:15:57;;;;;;;24.48;14.75;;;;;;;20.11;100.00;94710.69;5070967;28;20240;-72
2022/08/31 06:18:26;;;;;;;18.95;14.50;;;;;;;20.04;100.00;94712.03;5071418;28;20521;-73
2022/08/31 06:21:02;;;;;;;25.92;14.15;;;;;;;19.94;100.00;94707.63;5071261;28;20334;-73
2022/08/31 06:23:29;;;;;;;25.13;14.07;;;;;;;19.99;100.00;94712.88;5070955;28;20231;-73
2022/08/31 06:26:02;;;;;;;18.52;14.25;;;;;;;20.10;100.00;94706.47;5071222;28;20240;-73
2022/08/31 06:28:31;;;;;;;21.13;13.82;;;;;;;20.15;100.00;94698.50;5070417;28;20197;-80
2022/08/31 06:30:59;;;;;;;15.63;12.93;;;;;;;20.26;100.00;94710.56;5070935;28;20198;-76
2022/08/31 06:33:29;;;;;;;17.45;12.75;;;;;;;20.36;100.00;94705.22;5071019;28;20205;-74
2022/08/31 06:35:56;;;;;;;21.65;13.48;;;;;;;20.51;100.00;94708.78;5070550;28;20259;-75
2022/08/31 06:38:23;;;;;;;23.23;13.57;;;;;;;20.54;100.00;94709.03;5070712;28;20205;-75
2022/08/31 06:40:49;;;;;;;21.48;14.05;;;;;;;20.68;100.00;94709.97;5070994;28;20947;-76
2022/08/31 06:43:17;;;;;;;23.88;13.85;;;;;;;20.75;100.00;94712.28;5070617;28;20221;-76
2022/08/31 06:45:44;;;;;;;24.30;16.20;;;;;;;20.77;100.00;94710.94;5070469;28;20220;-75
2022/08/31 06:48:11;;;;;;;26.90;14.50;;;;;;;20.84;100.00;94716.66;5070489;28;20285;-76
2022/08/31 06:50:40;;;;;;;25.00;15.75;;;;;;;21.00;100.00;94714.66;5070452;28;20201;-75
2022/08/31 06:53:08;;;;;;;19.70;14.52;;;;;;;21.00;100.00;94712.00;5070824;28;20219;-77
2022/08/31 06:55:35;;;;;;;28.38;14.52;;;;;;;20.97;100.00;94712.56;5070443;28;20298;-76
2022/08/31 06:58:03;;;;;;;22.88;14.98;;;;;;;21.01;100.00;94707.50;5070588;28;20276;-76
2022/08/31 07:00:32;;;;;;;25.60;15.38;;;;;;;21.02;100.00;94709.84;5070657;28;20645;-74
2022/08/31 07:03:21;;;;;;;26.77;15.75;;;;;;;21.14;100.00;94710.28;5070223;28;20193;-75
2022/08/31 07:05:47;;;;;;;22.15;14.35;;;;;;;21.56;100.00;94714.03;5069247;28;20618;-75
2022/08/31 07:08:14;;;;;;;21.45;15.10;;;;;;;21.72;100.00;94710.88;5069614;28;20193;-75
2022/08/31 07:10:41;;;;;;;26.77;14.90;;;;;;;21.76;100.00;94714.50;5070415;28;20193;-75
2022/08/31 07:13:08;;;;;;;22.13;12.90;;;;;;;21.82;100.00;94702.00;5070441;28;20194;-75
2022/08/31 07:15:34;;;;;;;19.23;13.23;;;;;;;21.87;100.00;94710.72;5069656;28;20765;-75
2022/08/31 07:18:01;;;;;;;17.10;13.02;;;;;;;21.90;99.96;94718.03;5070000;28;20193;-76
2022/08/31 07:20:28;;;;;;;23.65;13.27;;;;;;;21.92;98.82;94721.22;5069518;28;20663;-75
2022/08/31 07:22:57;;;;;;;20.73;12.75;;;;;;;21.94;98.93;94712.97;5070085;28;20193;-75
2022/08/31 07:25:25;;;;;;;19.48;13.10;;;;;;;22.08;99.03;94724.41;5069236;28;20316;-76
2022/08/31 07:27:54;;;;;;;16.75;11.93;;;;;;;22.10;98.93;94726.78;5062056;28;20208;-74
2022/08/31 07:30:21;;;;;;;15.90;12.00;;;;;;;22.13;98.65;94728.84;5057191;28;20205;-75
2022/08/31 07:32:49;;;;;;;16.17;11.10;;;;;;;22.22;98.27;94727.13;5061797;28;20209;-74
2022/08/31 07:35:16;;;;;;;18.60;11.55;;;;;;;22.33;96.66;94724.03;5062137;28;20221;-76
2022/08/31 07:43:15;;;;;;;16.33;11.70;;;;;;;22.68;94.96;94720.06;5060698;28;20200;-76
2022/08/31 07:45:42;;;;;;;18.05;11.77;;;;;;;22.86;94.66;94715.72;5060148;28;20220;-76
2022/08/31 07:48:09;;;;;;;14.23;11.63;;;;;;;22.91;94.51;94711.16;5060639;28;20212;-75
2022/08/31 07:50:37;;;;;;;18.98;11.30;;;;;;;22.86;94.80;94718.38;5061524;28;20220;-74
2022/08/31 07:53:07;;;;;;;16.15;11.35;;;;;;;22.94;93.81;94715.06;5061749;28;20209;-77
2022/08/31 07:55:36;;;;;;;17.55;11.48;;;;;;;22.97;94.08;94719.78;5062422;28;20232;-76
2022/08/31 07:58:03;;;;;;;19.77;11.63;;;;;;;23.00;93.27;94712.03;5063384;28;20197;-76
2022/08/31 08:00:34;;;;;;;17.38;12.32;;;;;;;22.98;93.14;94711.53;5062658;28;20201;-77
2022/08/31 08:03:06;;;;;;;16.70;11.90;;;;;;;22.97;93.76;94715.25;5062337;28;20262;-77
2022/08/31 08:05:37;;;;;;;18.05;11.80;;;;;;;23.08;93.68;94708.72;5062868;28;20189;-75
2022/08/31 08:08:05;;;;;;;18.92;12.55;;;;;;;23.13;93.74;94713.13;5060907;28;20320;-75
2022/08/31 08:10:33;;;;;;;19.15;11.90;;;;;;;23.06;94.38;94710.06;5060764;28;20648;-75
2022/08/31 08:13:03;;;;;;;16.35;11.55;;;;;;;23.03;94.22;94713.31;5060915;28;20219;-75
2022/08/31 08:15:31;;;;;;;16.73;12.15;;;;;;;23.08;93.02;94706.06;5061854;28;20237;-76
2022/08/31 08:17:59;;;;;;;14.10;11.38;;;;;;;23.16;92.09;94701.91;5062207;28;20201;-76
2022/08/31 08:20:26;;;;;;;19.08;11.55;;;;;;;23.20;92.18;94702.91;5061223;28;20240;-75
2022/08/31 08:22:53;;;;;;;12.88;11.05;;;;;;;23.37;91.10;94703.09;5060796;28;20212;-76
2022/08/31 08:25:20;;;;;;;18.17;10.95;;;;;;;23.47;91.58;94700.25;5061106;28;20294;-77
2022/08/31 08:27:47;;;;;;;12.60;10.10;;;;;;;23.78;89.95;94710.22;5062405;28;20262;-76
2022/08/31 08:30:16;;;;;;;15.80;11.23;;;;;;;24.00;87.41;94702.28;5063381;28;20219;-76
2022/08/31 08:32:43;;;;;;;17.38;10.95;;;;;;;24.03;86.96;94705.16;5061910;28;20209;-75
2022/08/31 08:35:10;;;;;;;16.60;11.70;;;;;;;24.10;86.78;94697.56;5061910;28;20267;-77
2022/08/31 08:37:39;;;;;;;16.08;11.00;;;;;;;24.08;87.09;94710.34;5061269;28;20225;-76
2022/08/31 08:40:08;;;;;;;20.83;11.20;;;;;;;24.12;86.71;94705.25;5062645;28;20208;-76
2022/08/31 08:42:35;;;;;;;15.55;11.07;;;;;;;24.16;86.15;94703.53;5061793;28;20200;-75
2022/08/31 08:45:03;;;;;;;16.88;10.85;;;;;;;24.24;86.63;94694.88;5060060;28;20193;-75
2022/08/31 08:47:36;;;;;;;16.73;9.95;;;;;;;24.46;86.60;94702.81;5060218;28;20294;-78
2022/08/31 08:50:06;;;;;;;11.23;9.40;;;;;;;24.69;85.66;94700.91;5062136;28;20282;-78
2022/08/31 08:52:40;;;;;;;15.93;10.55;;;;;;;24.82;84.13;94698.19;5061398;28;20276;-78
2022/08/31 08:55:11;;;;;;;15.43;9.98;;;;;;;24.86;81.82;94692.25;5061881;28;20374;-78
2022/08/31 08:57:42;;;;;;;20.30;10.15;;;;;;;24.95;82.43;94688.56;5061093;28;20912;-78
2022/08/31 09:00:13;;;;;;;11.52;9.93;;;;;;;25.07;82.01;94675.47;5060351;28;20328;-78
2022/08/31 09:02:48;;;;;;;11.77;8.63;;;;;;;25.31;81.97;94672.41;5062113;28;20310;-77
2022/08/31 09:05:46;;;;;;;19.98;9.98;;;;;;;25.57;80.32;94673.25;5063776;28;20293;-75
2022/08/31 09:08:31;;;;;;;13.00;9.25;;;;;;;25.75;78.34;94669.53;5061268;28;20205;-75
2022/08/31 09:11:16;;;;;;;11.43;9.15;;;;;;;25.97;77.86;94665.16;5059991;28;20209;-75
2022/08/31 09:13:54;;;;;;;14.00;9.10;;;;;;;26.13;78.27;94663.56;5062678;28;20217;-74
2022/08/31 09:16:39;;;;;;;12.85;9.13;;;;;;;26.26;76.80;94660.00;5061687;28;20308;-74
2022/08/31 09:19:12;;;;;;;13.93;9.57;;;;;;;26.40;76.82;94657.94;5065961;28;20320;-75
2022/08/31 09:21:43;;;;;;;14.02;10.00;;;;;;;26.58;77.45;94653.34;5063310;28;20205;-74
2022/08/31 09:24:12;;;;;;;14.15;9.13;;;;;;;26.71;75.70;94655.81;5065081;28;20205;-74
2022/08/31 09:26:59;;;;;;;13.40;9.25;;;;;;;26.90;74.86;94656.22;5064953;28;20206;-74
2022/08/31 09:29:28;;;;;;;19.23;9.52;;;;;;;27.03;73.55;94655.25;5065104;28;20212;-74
2022/08/31 09:32:04;;;;;;;11.13;9.45;;;;;;;27.10;73.50;94652.06;5063283;28;20205;-74
2022/08/31 09:34:36;;;;;;;13.30;9.05;;;;;;;27.15;72.70;94661.78;5065523;28;20228;-75
2022/08/31 09:37:21;;;;;;;14.85;9.32;;;;;;;27.20;71.93;94657.03;5056585;28;20205;-88
2022/08/31 09:39:51;;;;;;;14.30;9.27;;;;;;;27.29;72.03;94655.13;5067501;28;20262;-87
2022/08/31 09:42:31;;;;;;;15.20;9.82;;;;;;;27.37;70.10;94642.81;5066647;28;20205;-89
2022/08/31 09:45:01;;;;;;;14.85;10.07;;;;;;;27.51;70.22;94646.84;5064597;28;20205;-78
2022/08/31 09:47:49;;;;;;;12.50;9.65;;;;;;;27.60;69.54;94641.44;5063360;28;20213;-81
2022/08/31 09:50:33;;;;;;;13.10;9.80;;;;;;;27.67;68.56;94623.00;5066300;28;20288;-77
2022/08/31 09:56:16;;;;;;;16.38;9.48;;;;;;;27.41;68.78;94612.50;5066338;28;20635;-75
2022/08/31 09:58:46;;;;;;;24.15;9.95;;;;;;;27.34;68.54;94611.41;5064544;28;20716;-75
2022/08/31 10:01:17;;;;;;;13.65;9.45;;;;;;;27.60;68.28;94602.16;5064799;28;20580;-76
2022/08/31 10:03:46;;;;;;;13.95;8.93;;;;;;;27.81;69.29;94602.16;5065864;28;20209;-76
2022/08/31 10:06:44;;;;;;;23.25;9.10;;;;;;;28.19;68.75;94614.59;5065736;28;20197;-75
2022/08/31 10:09:19;;;;;;;12.18;8.85;;;;;;;28.46;66.07;94613.97;5065427;28;20208;-76
2022/08/31 10:11:47;;;;;;;16.35;9.13;;;;;;;28.83;64.14;94609.50;5064290;28;20219;-75
2022/08/31 10:14:23;;;;;;;19.85;8.70;;;;;;;28.84;62.57;94605.69;5063462;28;20237;-76
2022/08/31 10:16:54;;;;;;;11.23;8.32;;;;;;;28.95;63.74;94601.47;5064327;28;20221;-75
2022/08/31 10:19:34;;;;;;;14.88;8.52;;;;;;;29.16;63.99;94608.28;5064551;28;20193;-75
2022/08/31 10:22:09;;;;;;;15.90;8.70;;;;;;;29.39;62.58;94599.78;5063199;28;20212;-75
2022/08/31 10:24:44;;;;;;;11.02;8.63;;;;;;;29.66;59.46;94599.84;5063224;28;20663;-76
2022/08/31 10:27:16;;;;;;;17.30;8.25;;;;;;;29.89;59.75;94599.38;5063152;28;20222;-75
2022/08/31 10:30:03;;;;;;;11.43;8.30;;;;;;;30.19;59.65;94597.88;5062282;28;20212;-76
2022/08/31 10:32:37;;;;;;;14.38;8.50;;;;;;;30.21;59.03;94595.66;5061298;28;20200;-74
2022/08/31 10:35:09;;;;;;;16.98;9.55;;;;;;;29.71;60.66;94598.81;5063822;28;20233;-76
2022/08/31 10:37:53;;;;;;;16.48;9.30;;;;;;;29.07;62.22;94596.09;5061549;28;20770;-75
2022/08/31 10:40:28;;;;;;;18.95;9.65;;;;;;;28.52;64.04;94594.72;5060300;28;20207;-73
2022/08/31 10:43:09;;;;;;;23.88;8.75;;;;;;;27.79;64.56;94599.03;5060844;28;20197;-76
2022/08/31 10:45:40;;;;;;;16.42;9.60;;;;;;;27.50;65.61;94599.09;5062856;28;20702;-75
2022/08/31 10:48:09;;;;;;;17.08;9.18;;;;;;;27.31;66.36;94598.72;5062079;28;20205;-75
2022/08/31 10:50:44;;;;;;;17.90;8.95;;;;;;;26.90;66.83;94605.53;5061676;28;20209;-75
2022/08/31 10:53:32;;;;;;;19.25;9.88;;;;;;;26.64;67.42;94599.50;5061935;28;20295;-74
2022/08/31 10:56:13;;;;;;;12.88;9.07;;;;;;;26.38;68.56;94590.78;5060821;28;20216;-75
2022/08/31 10:58:46;;;;;;;19.25;9.70;;;;;;;26.21;69.14;94607.63;5062846;28;20202;-74
2022/08/31 11:01:20;;;;;;;14.98;9.43;;;;;;;26.10;68.48;94617.03;5061837;28;20194;-74
2022/08/31 11:04:12;;;;;;;14.23;10.15;;;;;;;26.01;69.87;94615.47;5061082;28;20211;-75
2022/08/31 11:06:47;;;;;;;17.27;9.75;;;;;;;25.87;69.33;94626.28;5051863;28;20195;-75
2022/08/31 11:09:19;;;;;;;14.80;9.38;;;;;;;25.62;70.26;94627.06;5062891;28;20196;-74
2022/08/31 11:11:56;;;;;;;18.70;10.57;;;;;;;25.51;70.45;94637.25;5062617;28;20198;-75
2022/08/31 11:14:49;;;;;;;13.90;9.45;;;;;;;25.28;70.88;94641.09;5060322;28;20599;-74
2022/08/31 11:17:33;;;;;;;15.15;10.38;;;;;;;24.95;71.48;94630.03;5058826;28;20213;-74
2022/08/31 11:20:24;;;;;;;19.40;11.05;;;;;;;24.75;72.08;94635.88;5062224;28;20201;-75
2022/08/31 11:23:15;;;;;;;16.20;11.23;;;;;;;24.37;73.92;94637.41;5059424;28;20198;-75
2022/08/31 11:26:14;;;;;;;14.77;10.20;;;;;;;24.29;73.45;94649.56;5060918;28;20206;-75
2022/08/31 11:28:47;;;;;;;19.63;12.40;;;;;;;23.78;75.16;94643.88;5061594;28;20700;-73
2022/08/31 11:31:22;;;;;;;19.52;11.25;;;;;;;23.64;75.39;94634.06;5062355;28;20196;-73
2022/08/31 11:33:52;;;;;;;20.02;11.73;;;;;;;23.42;75.77;94634.03;5062256;28;20216;-74
2022/08/31 11:36:51;;;;;;;22.65;11.20;;;;;;;23.17;75.98;94605.38;5061067;28;20240;-74
2022/08/31 11:39:39;;;;;;;18.02;11.52;;;;;;;23.22;76.81;94601.81;5061866;28;20216;-74
2022/08/31 11:42:13;;;;;;;19.65;11.02;;;;;;;23.16;76.59;94593.97;5062689;28;20212;-74